Time;durP1;ratioP1;P1;durP2;ratioP2;P2;SDS_P1;SDS_P2;PMS_P1;PMS_P2;Temp;Humidity;BMP_temperature;BMP_pressure;BME280_temperature;BME280_humidity;BME280_pressure;Samples;Min_cycle;Max_cycle;Signal;HPM_P1;HPM_P2
2021/06/19 00:01:10;;;;;;;10.73;8.13;;;;;;;21.63;51.05;100373.13;126848;1090;102892;-78
2021/06/19 00:03:58;;;;;;;13.07;8.43;;;;;;;21.60;50.51;100381.33;126723;1090;103332;-77
2021/06/19 00:06:46;;;;;;;10.47;8.43;;;;;;;21.58;51.18;100380.61;126705;1089;102884;-77
2021/06/19 00:09:36;;;;;;;10.73;8.00;;;;;;;21.55;51.03;100372.88;126842;1090;103543;-78
2021/06/19 00:12:24;;;;;;;10.47;8.17;;;;;;;21.53;51.24;100381.89;126672;1090;115061;-78
2021/06/19 00:15:15;;;;;;;12.17;8.73;;;;;;;21.51;51.46;100379.36;126833;1088;103030;-77
2021/06/19 00:18:02;;;;;;;9.20;8.23;;;;;;;21.47;51.12;100383.21;126795;1088;114315;-78
2021/06/19 00:20:52;;;;;;;12.20;8.07;;;;;;;21.45;51.51;100378.98;126713;1090;102893;-78
2021/06/19 00:23:40;;;;;;;9.93;8.63;;;;;;;21.40;51.57;100371.38;126586;1090;114390;-78
2021/06/19 00:26:28;;;;;;;10.30;8.60;;;;;;;21.36;51.84;100375.20;126736;1090;102628;-78
2021/06/19 00:29:17;;;;;;;13.20;9.00;;;;;;;21.31;52.36;100377.36;126681;1090;114374;-78
2021/06/19 00:32:05;;;;;;;10.87;8.67;;;;;;;21.25;51.95;100373.37;126723;1089;102853;-78
2021/06/19 00:34:53;;;;;;;9.83;8.77;;;;;;;21.21;52.01;100368.38;126602;1090;114416;-78
2021/06/19 00:37:41;;;;;;;10.60;8.43;;;;;;;21.16;52.26;100373.16;126818;1088;102906;-78
2021/06/19 00:40:30;;;;;;;12.97;8.63;;;;;;;21.11;52.41;100374.34;126654;1090;114453;-78
2021/06/19 00:43:17;;;;;;;15.30;9.23;;;;;;;21.09;52.09;100388.69;126865;1090;102940;-78
2021/06/19 00:46:05;;;;;;;9.90;9.00;;;;;;;21.04;52.87;100381.08;126841;1089;102994;-78
2021/06/19 00:48:53;;;;;;;10.37;9.03;;;;;;;20.99;53.12;100383.20;126767;1089;114198;-77
2021/06/19 00:51:41;;;;;;;10.47;9.20;;;;;;;20.94;53.17;100390.66;126754;1089;102930;-77
2021/06/19 00:54:28;;;;;;;11.87;9.73;;;;;;;20.91;53.14;100390.88;126641;1089;114256;-78
2021/06/19 00:57:16;;;;;;;14.50;9.40;;;;;;;20.85;53.82;100383.38;126690;1090;102863;-78
2021/06/19 01:00:06;;;;;;;14.47;9.67;;;;;;;20.80;53.80;100389.00;126694;1090;114421;-78
2021/06/19 01:02:56;;;;;;;13.73;9.47;;;;;;;20.76;54.12;100386.69;126853;1090;102853;-77
2021/06/19 01:05:44;;;;;;;16.10;9.73;;;;;;;20.69;53.98;100388.94;126721;1090;114721;-78
2021/06/19 01:08:32;;;;;;;10.20;9.13;;;;;;;20.65;53.99;100384.83;126753;1090;102872;-78
2021/06/19 01:11:23;;;;;;;12.63;9.23;;;;;;;20.61;54.63;100382.48;126617;1090;114268;-77
2021/06/19 01:14:11;;;;;;;10.80;9.10;;;;;;;20.58;54.38;100388.85;126854;1089;102973;-77
2021/06/19 01:16:59;;;;;;;12.93;10.00;;;;;;;20.55;54.68;100383.77;126673;1090;114880;-77
2021/06/19 01:20:19;;;;;;;14.53;9.80;;;;;;;20.53;54.88;100390.14;126849;1090;103080;-78
2021/06/19 01:23:08;;;;;;;11.67;9.67;;;;;;;20.48;54.86;100383.38;126618;1090;114467;-77
2021/06/19 01:25:55;;;;;;;12.70;9.57;;;;;;;20.48;54.73;100380.73;126698;1090;103133;-78
2021/06/19 01:28:44;;;;;;;;;;;;;;;20.45;55.14;100378.27;126663;1089;114444;-78
2021/06/19 01:31:32;;;;;;;11.63;9.18;;;;;;;20.43;55.19;100385.48;126702;1089;102893;-78
2021/06/19 01:34:20;;;;;;;10.30;9.13;;;;;;;20.40;55.20;100384.83;126691;1090;103219;-76
2021/06/19 01:37:08;;;;;;;;;;;;;;;20.40;55.50;100390.13;126756;1089;114088;-78
2021/06/19 01:40:07;;;;;;;12.70;9.33;;;;;;;20.37;55.58;100388.55;126871;1088;102851;-78
2021/06/19 01:42:56;;;;;;;10.23;9.17;;;;;;;20.34;55.57;100396.71;126712;1090;114314;-78
2021/06/19 01:45:44;;;;;;;13.80;10.13;;;;;;;20.32;55.60;100397.78;126832;1089;102912;-77
2021/06/19 01:48:32;;;;;;;10.87;9.77;;;;;;;20.30;55.76;100399.69;126632;1089;114528;-77
2021/06/19 01:51:20;;;;;;;11.30;9.70;;;;;;;20.27;55.79;100400.73;126750;1090;103322;-78
2021/06/19 01:54:07;;;;;;;11.17;10.00;;;;;;;20.22;55.85;100397.56;126646;1090;114340;-77
2021/06/19 01:56:55;;;;;;;14.00;10.73;;;;;;;20.18;56.36;100396.09;126718;1090;102973;-76
2021/06/19 01:59:43;;;;;;;12.70;10.77;;;;;;;20.13;56.53;100388.47;126655;1090;114687;-78
2021/06/19 02:02:32;;;;;;;13.33;10.40;;;;;;;20.08;56.52;100390.56;126817;1090;102859;-78
2021/06/19 02:05:21;;;;;;;11.53;10.40;;;;;;;20.06;56.48;100396.92;126609;1089;114830;-78
2021/06/19 02:08:10;;;;;;;12.53;11.10;;;;;;;20.00;56.78;100392.91;126830;1090;103001;-77
2021/06/19 02:10:58;;;;;;;15.47;11.10;;;;;;;19.97;56.98;100398.42;126673;1090;115015;-78
2021/06/19 02:13:46;;;;;;;17.37;11.00;;;;;;;19.95;56.81;100391.55;126737;1089;103038;-78
2021/06/19 02:16:33;;;;;;;15.27;11.60;;;;;;;19.92;56.91;100389.92;126700;1090;102846;-77
2021/06/19 02:19:21;;;;;;;15.07;11.67;;;;;;;19.90;56.96;100390.03;126648;1090;114506;-77
2021/06/19 02:22:09;;;;;;;15.67;11.10;;;;;;;19.91;56.97;100385.59;126705;1090;102867;-78
2021/06/19 02:24:57;;;;;;;14.30;10.30;;;;;;;19.90;56.96;100390.03;126763;1090;114412;-77
2021/06/19 02:27:51;;;;;;;12.27;10.70;;;;;;;19.89;57.25;100393.64;126646;1090;102987;-77
2021/06/19 02:30:44;;;;;;;15.60;11.85;;;;;;;19.89;57.46;100393.64;126631;1090;114499;-77
2021/06/19 02:33:33;;;;;;;12.77;11.27;;;;;;;19.88;57.18;100388.45;126838;1088;102850;-77
2021/06/19 02:36:21;;;;;;;13.20;11.20;;;;;;;19.86;57.48;100385.06;126712;1090;114646;-77
2021/06/19 02:39:08;;;;;;;;;;;;;;;19.84;57.55;100393.11;126873;1090;102854;-76
2021/06/19 02:41:56;;;;;;;13.80;11.40;;;;;;;19.83;57.81;100399.36;126757;1089;101791;-77
2021/06/19 02:44:43;;;;;;;15.20;11.20;;;;;;;19.85;57.71;100393.95;126835;1089;102874;-77
2021/06/19 02:47:31;;;;;;;;;;;;;;;19.85;57.50;100393.95;126736;1088;114782;-77
2021/06/19 02:50:22;;;;;;;12.93;10.47;;;;;;;19.84;57.31;100398.41;126851;1090;102696;-78
2021/06/19 02:53:12;;;;;;;12.27;11.00;;;;;;;19.86;57.39;100393.85;126715;1090;114669;-77
2021/06/19 02:56:00;;;;;;;11.87;10.67;;;;;;;19.89;57.34;100393.64;126703;1090;102972;-77
2021/06/19 02:58:47;;;;;;;11.60;10.40;;;;;;;19.88;57.45;100397.23;126836;1089;102659;-77
2021/06/19 03:01:35;;;;;;;11.90;10.70;;;;;;;19.89;57.59;100396.28;126745;1088;114666;-77
2021/06/19 03:04:23;;;;;;;12.70;10.77;;;;;;;19.91;57.73;100396.17;126860;1089;102983;-78
2021/06/19 03:07:11;;;;;;;11.27;10.07;;;;;;;19.91;57.80;100399.67;126760;1090;114613;-78
2021/06/19 03:09:59;;;;;;;14.30;10.63;;;;;;;19.94;57.61;100400.44;126751;1090;102844;-78
2021/06/19 03:12:47;;;;;;;11.90;10.70;;;;;;;19.95;57.37;100405.63;126586;1090;114648;-77
2021/06/19 03:15:35;;;;;;;14.53;10.43;;;;;;;19.99;57.47;100400.96;126871;1090;102957;-77
2021/06/19 03:18:22;;;;;;;11.65;10.45;;;;;;;20.00;57.35;100400.01;126772;1088;114604;-77
2021/06/19 03:21:10;;;;;;;;;;;;;;;20.01;57.46;100404.34;126757;1090;101782;-77
2021/06/19 03:23:57;;;;;;;13.57;10.70;;;;;;;20.02;57.67;100403.39;126698;1089;102905;-77
2021/06/19 03:26:45;;;;;;;;;;;;;;;20.03;57.46;100402.44;126736;1088;102852;-77
2021/06/19 03:29:32;;;;;;;13.43;12.03;;;;;;;20.03;57.52;100400.64;126670;1090;102907;-77
2021/06/19 03:32:20;;;;;;;12.93;11.63;;;;;;;20.05;57.43;100393.44;126725;1090;103009;-77
2021/06/19 03:35:10;;;;;;;17.97;12.70;;;;;;;20.07;57.56;100399.47;126718;1089;102962;-77
2021/06/19 03:37:59;;;;;;;16.30;13.03;;;;;;;20.09;57.27;100399.36;126740;1090;102910;-78
2021/06/19 03:40:46;;;;;;;13.93;12.20;;;;;;;20.13;57.69;100395.57;126808;1089;102717;-77
2021/06/19 03:43:34;;;;;;;;;;;;;;;20.16;57.23;100395.34;126765;1090;115171;-77
2021/06/19 03:46:21;;;;;;;17.83;13.87;;;;;;;20.21;57.39;100395.87;126856;1089;102878;-78
2021/06/19 03:49:09;;;;;;;14.33;12.73;;;;;;;20.23;57.49;100400.09;126763;1090;114468;-77
2021/06/19 03:51:57;;;;;;;16.70;14.13;;;;;;;20.27;57.29;100403.38;126759;1089;102257;-78
2021/06/19 03:54:44;;;;;;;;;;;;;;;20.29;57.31;100406.79;126596;1088;114621;-78
2021/06/19 03:57:34;;;;;;;16.27;12.23;;;;;;;20.32;57.05;100408.38;126847;1090;102869;-77
2021/06/19 04:00:22;;;;;;;17.50;12.83;;;;;;;20.34;57.24;100401.16;126642;1090;114643;-77
2021/06/19 04:03:11;;;;;;;15.60;12.13;;;;;;;20.37;57.31;100407.09;126841;1088;102834;-77
2021/06/19 04:05:59;;;;;;;12.07;10.87;;;;;;;20.43;57.07;100403.19;126698;1090;114776;-77
2021/06/19 04:08:47;;;;;;;13.07;11.10;;;;;;;20.47;56.59;100404.69;126639;1090;103013;-77
2021/06/19 04:11:34;;;;;;;12.30;11.00;;;;;;;20.51;56.63;100406.16;126798;1088;103035;-78
2021/06/19 04:14:22;;;;;;;;;;;;;;;20.55;56.45;100393.53;126908;1090;102952;-77
2021/06/19 04:17:10;;;;;;;13.13;11.60;;;;;;;20.57;56.47;100397.76;126860;1090;102189;-77
2021/06/19 04:19:58;;;;;;;13.67;11.80;;;;;;;20.61;56.28;100393.08;126717;1090;114793;-77
2021/06/19 04:22:46;;;;;;;;;;;;;;;20.66;56.19;100406.88;126722;1090;102682;-78
2021/06/19 04:25:33;;;;;;;10.55;9.23;;;;;;;20.70;55.90;100400.39;126805;1088;102946;-78
2021/06/19 04:28:21;;;;;;;10.03;9.00;;;;;;;20.76;55.72;100406.09;126701;1089;103553;-77
2021/06/19 04:31:08;;;;;;;11.23;7.87;;;;;;;20.84;55.88;100405.55;126647;1090;114393;-77
2021/06/19 04:33:56;;;;;;;9.63;8.33;;;;;;;20.93;55.53;100406.67;126878;1089;102985;-77
2021/06/19 04:36:44;;;;;;;10.83;7.97;;;;;;;21.01;55.22;100397.22;126723;1088;114251;-77
2021/06/19 04:39:33;;;;;;;8.20;7.40;;;;;;;21.10;55.30;100398.34;126872;1090;102653;-77
2021/06/19 04:42:23;;;;;;;8.20;7.40;;;;;;;21.19;55.04;100400.33;126645;1088;114271;-77
2021/06/19 04:45:13;;;;;;;10.67;7.83;;;;;;;21.28;54.75;100404.13;126742;1090;102879;-77
2021/06/19 04:48:04;;;;;;;8.57;7.63;;;;;;;21.34;54.50;100403.66;126859;1089;102852;-77
2021/06/19 04:50:52;;;;;;;11.70;7.80;;;;;;;21.40;54.52;100401.41;126825;1089;102875;-78
2021/06/19 04:53:40;;;;;;;11.53;8.40;;;;;;;21.49;54.07;100410.48;126814;1088;103007;-78
2021/06/19 04:56:28;;;;;;;8.97;7.63;;;;;;;21.56;54.09;100406.42;126566;1090;114347;-78
2021/06/19 04:59:15;;;;;;;8.83;7.93;;;;;;;21.64;53.86;100403.17;126714;1090;103042;-76
2021/06/19 05:02:03;;;;;;;11.10;7.70;;;;;;;21.68;53.75;100392.20;126765;1090;114461;-77
2021/06/19 05:04:51;;;;;;;11.80;7.83;;;;;;;21.77;53.38;100395.13;126868;1090;103016;-77
2021/06/19 05:07:39;;;;;;;8.83;7.27;;;;;;;21.85;53.22;100392.72;126712;1089;114415;-78
2021/06/19 05:10:33;;;;;;;7.60;6.90;;;;;;;21.96;53.33;100390.95;126749;1089;102867;-78
2021/06/19 05:13:21;;;;;;;;;;;;;;;22.08;53.01;100386.50;126794;1089;115338;-78
2021/06/19 05:16:08;;;;;;;9.23;7.63;;;;;;;22.17;53.12;100385.80;126867;1090;103950;-77
2021/06/19 05:18:55;;;;;;;;;;;;;;;22.33;52.69;100388.11;126770;1089;114307;-77
2021/06/19 05:21:44;;;;;;;10.70;7.83;;;;;;;22.46;52.36;100383.52;126750;1089;102941;-77
2021/06/19 05:24:31;;;;;;;12.33;6.97;;;;;;;22.67;52.09;100385.42;126630;1089;114664;-77
2021/06/19 05:27:19;;;;;;;8.67;6.20;;;;;;;22.90;51.61;100385.28;126739;1090;102891;-77
2021/06/19 05:30:08;;;;;;;8.97;6.47;;;;;;;23.21;51.39;100385.44;126716;1088;102919;-78
2021/06/19 05:32:56;;;;;;;8.20;6.17;;;;;;;23.50;50.42;100381.17;126704;1090;113991;-78
2021/06/19 05:35:44;;;;;;;10.13;7.00;;;;;;;23.79;49.14;100377.91;126707;1089;102871;-78
2021/06/19 05:38:32;;;;;;;9.73;6.23;;;;;;;23.96;48.80;100377.31;126642;1089;114377;-78
2021/06/19 05:41:20;;;;;;;15.50;6.83;;;;;;;24.12;48.53;100374.17;126760;1089;102891;-78
2021/06/19 05:44:08;;;;;;;13.77;6.47;;;;;;;24.24;47.72;100380.27;126665;1090;114293;-78
2021/06/19 05:46:56;;;;;;;9.37;5.60;;;;;;;24.35;47.42;100374.86;126832;1090;103009;-78
2021/06/19 05:49:55;;;;;;;9.45;5.50;;;;;;;24.58;47.49;100379.00;126767;1089;114122;-78
2021/06/19 05:52:43;;;;;;;8.50;6.23;;;;;;;24.85;47.27;100369.53;126861;1089;103381;-78
2021/06/19 05:55:34;;;;;;;12.77;6.07;;;;;;;25.22;46.62;100372.41;126735;1089;114328;-77
2021/06/19 05:58:22;;;;;;;6.63;5.10;;;;;;;25.63;46.05;100368.58;126882;1088;103007;-77
2021/06/19 06:01:10;;;;;;;8.93;4.90;;;;;;;26.54;44.77;100367.06;126595;1090;115093;-78
2021/06/19 06:03:59;;;;;;;12.73;5.63;;;;;;;28.11;43.04;100355.77;126862;1088;102851;-78
2021/06/19 06:06:48;;;;;;;10.37;5.10;;;;;;;29.98;40.43;100351.60;126665;1090;114561;-78
2021/06/19 06:09:38;;;;;;;11.80;5.25;;;;;;;31.78;37.77;100351.42;126922;1088;102881;-78
2021/06/19 06:12:26;;;;;;;9.90;5.23;;;;;;;33.34;34.95;100360.03;126860;1089;101159;-77
2021/06/19 06:15:15;;;;;;;8.57;4.30;;;;;;;34.64;32.65;100352.14;126621;1090;113883;-77
2021/06/19 06:18:03;;;;;;;14.27;4.57;;;;;;;35.66;31.28;100351.08;126757;1089;102882;-77
2021/06/19 06:20:52;;;;;;;10.53;4.43;;;;;;;36.58;29.63;100350.86;126687;1089;114438;-77
2021/06/19 06:23:39;;;;;;;9.57;3.77;;;;;;;37.46;28.53;100350.13;126833;1090;102912;-78
2021/06/19 06:26:27;;;;;;;5.87;3.97;;;;;;;38.29;26.68;100355.20;126762;1089;114204;-78
2021/06/19 06:29:15;;;;;;;5.67;3.30;;;;;;;38.90;26.29;100355.03;126860;1089;103125;-78
2021/06/19 06:32:10;;;;;;;6.67;3.87;;;;;;;39.60;25.44;100350.83;126665;1090;114323;-78
2021/06/19 06:34:57;;;;;;;12.40;4.50;;;;;;;40.24;24.87;100340.81;126796;1090;102865;-77
2021/06/19 06:37:45;;;;;;;6.20;3.47;;;;;;;40.88;23.05;100341.55;126783;1090;114301;-77
2021/06/19 06:40:33;;;;;;;5.67;3.60;;;;;;;41.34;22.94;100344.03;126784;1090;102923;-78
2021/06/19 06:43:20;;;;;;;5.87;3.60;;;;;;;41.61;21.87;100338.68;126741;1090;113391;-77
2021/06/19 06:46:08;;;;;;;8.53;3.30;;;;;;;41.93;20.66;100347.13;126861;1090;103015;-79
2021/06/19 06:48:56;;;;;;;6.03;3.30;;;;;;;41.99;21.46;100341.70;126772;1090;113350;-78
2021/06/19 06:51:44;;;;;;;8.97;3.63;;;;;;;42.38;20.93;100345.26;126897;1090;102887;-78
2021/06/19 06:54:38;;;;;;;8.80;3.63;;;;;;;42.82;20.59;100346.85;126780;1090;102970;-78
2021/06/19 06:57:26;;;;;;;4.57;3.03;;;;;;;43.50;20.24;100344.47;126785;1090;114090;-78
2021/06/19 07:00:14;;;;;;;8.93;3.07;;;;;;;44.05;19.31;100336.84;126872;1089;103020;-79
2021/06/19 07:03:03;;;;;;;10.15;3.75;;;;;;;44.09;18.77;100338.80;126717;1089;114191;-77
2021/06/19 07:05:51;;;;;;;5.50;3.00;;;;;;;44.24;18.94;100338.87;126891;1088;102852;-78
2021/06/19 07:08:39;;;;;;;6.50;3.40;;;;;;;44.52;18.53;100343.09;126793;1089;113195;-78
2021/06/19 07:11:26;;;;;;;8.80;2.87;;;;;;;44.66;18.11;100357.16;126700;1088;103081;-78
2021/06/19 07:14:14;;;;;;;5.03;2.63;;;;;;;44.57;17.85;100354.13;126765;1090;114237;-78
2021/06/19 07:17:01;;;;;;;13.87;5.77;;;;;;;44.51;18.11;100348.86;126879;1089;102997;-79
2021/06/19 07:19:49;;;;;;;5.87;3.47;;;;;;;44.47;17.82;100364.23;126659;1089;114528;-78
2021/06/19 07:22:37;;;;;;;7.60;4.57;;;;;;;44.52;17.64;100361.52;126866;1090;102859;-79
2021/06/19 07:25:25;;;;;;;4.73;2.90;;;;;;;44.35;17.13;100361.73;126711;1088;114486;-78
2021/06/19 07:28:13;;;;;;;5.17;3.00;;;;;;;44.37;17.31;100366.97;126704;1088;103022;-78
2021/06/19 07:31:01;;;;;;;7.13;3.17;;;;;;;44.42;17.37;100361.48;126811;1089;102850;-78
2021/06/19 07:33:49;;;;;;;4.77;2.53;;;;;;;44.02;17.06;100357.44;126857;1089;102862;-79
2021/06/19 07:36:41;;;;;;;7.37;3.20;;;;;;;43.78;17.07;100350.70;126797;1090;102894;-79
2021/06/19 07:39:29;;;;;;;11.33;2.90;;;;;;;43.91;17.49;100351.05;126744;1090;114290;-79
2021/06/19 07:42:16;;;;;;;7.47;3.20;;;;;;;43.99;16.92;100355.20;126948;1090;101483;-79
2021/06/19 07:45:06;;;;;;;6.87;2.87;;;;;;;43.89;16.94;100355.17;126791;1090;114292;-81
2021/06/19 07:47:54;;;;;;;7.43;2.67;;;;;;;43.79;17.12;100355.09;126742;1089;100481;-79
2021/06/19 07:50:43;;;;;;;4.30;2.60;;;;;;;43.81;16.96;100345.52;126794;1088;113360;-79
2021/06/19 07:53:32;;;;;;;8.67;2.67;;;;;;;43.32;17.28;100353.12;126837;1089;102777;-78
2021/06/19 07:56:19;;;;;;;3.40;2.60;;;;;;;43.46;17.19;100353.50;126722;1090;113024;-82
2021/06/19 07:59:07;;;;;;;5.37;2.60;;;;;;;43.22;16.85;100350.25;126854;1090;102997;-77
2021/06/19 08:01:55;;;;;;;4.87;2.70;;;;;;;43.20;16.72;100345.02;126651;1090;114286;-77
2021/06/19 08:04:43;;;;;;;3.97;2.20;;;;;;;42.96;16.18;100361.02;126750;1089;103057;-76
2021/06/19 08:07:31;;;;;;;7.27;2.60;;;;;;;42.40;16.59;100345.83;126701;1089;114448;-76
2021/06/19 08:10:19;;;;;;;7.90;2.50;;;;;;;42.28;16.92;100336.91;126760;1089;103015;-77
2021/06/19 08:13:07;;;;;;;10.47;3.17;;;;;;;41.98;16.89;100345.52;126859;1090;102881;-76
2021/06/19 08:15:57;;;;;;;13.17;3.40;;;;;;;41.55;16.97;100350.66;126791;1090;114393;-76
2021/06/19 08:18:46;;;;;;;9.53;2.60;;;;;;;41.28;17.71;100345.01;126832;1090;102881;-76
2021/06/19 08:21:33;;;;;;;5.03;2.77;;;;;;;40.81;17.93;100338.13;126604;1088;114149;-76
2021/06/19 08:24:21;;;;;;;3.13;2.37;;;;;;;40.57;18.04;100334.64;126714;1090;102989;-76
2021/06/19 08:27:08;;;;;;;5.17;2.53;;;;;;;40.50;17.99;100332.07;126589;1089;113779;-75
2021/06/19 08:29:59;;;;;;;6.80;2.37;;;;;;;40.49;18.37;100330.41;126762;1090;101851;-77
2021/06/19 08:32:46;;;;;;;6.67;2.10;;;;;;;40.31;17.35;100345.05;126631;1089;114140;-78
2021/06/19 08:35:34;;;;;;;7.77;2.20;;;;;;;39.97;17.79;100359.62;126785;1090;102689;-76
2021/06/19 08:38:21;;;;;;;5.13;2.30;;;;;;;39.47;18.04;100349.95;126728;1090;114187;-76
2021/06/19 08:41:10;;;;;;;5.50;2.30;;;;;;;39.08;18.19;100340.52;126772;1089;102879;-76
2021/06/19 08:43:59;;;;;;;5.30;2.43;;;;;;;38.74;18.89;100343.94;126608;1089;114459;-76
2021/06/19 08:46:50;;;;;;;6.20;2.70;;;;;;;38.50;19.37;100340.27;126743;1090;102263;-77
2021/06/19 08:49:38;;;;;;;3.20;2.30;;;;;;;38.27;19.49;100330.92;126641;1088;114150;-77
2021/06/19 08:52:26;;;;;;;5.20;2.60;;;;;;;38.00;20.39;100326.80;126688;1090;102888;-77
2021/06/19 08:55:15;;;;;;;6.53;2.30;;;;;;;37.98;20.72;100329.75;126747;1090;102860;-77
2021/06/19 08:58:04;;;;;;;5.53;2.80;;;;;;;37.99;20.40;100327.86;126610;1090;114041;-76
2021/06/19 09:00:52;;;;;;;5.23;2.57;;;;;;;37.69;20.84;100330.44;126798;1090;101131;-76
2021/06/19 09:03:41;;;;;;;4.23;2.47;;;;;;;37.63;21.44;100320.46;126700;1089;114108;-76
2021/06/19 09:06:29;;;;;;;4.60;2.23;;;;;;;37.51;21.17;100320.36;126745;1090;102895;-77
2021/06/19 09:09:18;;;;;;;5.37;2.30;;;;;;;37.32;21.98;100335.80;126572;1089;114270;-77
2021/06/19 09:12:06;;;;;;;4.50;2.50;;;;;;;37.28;22.30;100322.88;126704;1090;101242;-76
2021/06/19 09:15:17;;;;;;;5.75;2.65;;;;;;;37.63;22.46;100321.30;126720;1090;114234;-77
2021/06/19 09:18:07;;;;;;;8.20;3.13;;;;;;;37.62;21.90;100326.96;126810;1089;103306;-77
2021/06/19 09:20:59;;;;;;;4.47;3.13;;;;;;;37.18;22.81;100326.91;126697;1089;114130;-76
2021/06/19 09:23:47;;;;;;;5.90;2.80;;;;;;;36.72;23.64;100334.50;126719;1090;102866;-77
2021/06/19 09:26:35;;;;;;;7.13;3.00;;;;;;;36.49;24.08;100319.58;126727;1089;114438;-76
2021/06/19 09:29:29;;;;;;;3.50;2.70;;;;;;;36.31;24.07;100314.86;126704;1090;102849;-76
2021/06/19 09:32:25;;;;;;;5.70;3.03;;;;;;;35.83;25.01;100319.74;126543;1089;114321;-76
2021/06/19 09:35:15;;;;;;;10.60;3.67;;;;;;;35.50;25.66;100314.36;126846;1088;102878;-76
2021/06/19 09:38:05;;;;;;;7.33;2.73;;;;;;;35.42;26.30;100307.29;126615;1090;114602;-76
2021/06/19 09:40:52;;;;;;;4.73;3.07;;;;;;;35.50;26.60;100314.36;126858;1090;103036;-76
2021/06/19 09:43:45;;;;;;;7.03;2.80;;;;;;;35.53;26.71;100310.39;126823;1088;102944;-76
2021/06/19 09:46:34;;;;;;;4.33;3.03;;;;;;;35.78;26.43;100305.16;126839;1090;102865;-76
2021/06/19 09:49:33;;;;;;;5.57;3.13;;;;;;;35.77;27.04;100298.06;126865;1090;102853;-74
2021/06/19 09:52:30;;;;;;;8.83;3.70;;;;;;;36.00;26.39;100293.01;126676;1088;114294;-76
2021/06/19 09:55:18;;;;;;;5.63;2.97;;;;;;;35.76;26.45;100302.66;126796;1090;102962;-76
2021/06/19 09:58:06;;;;;;;5.20;3.00;;;;;;;35.47;26.74;100297.68;126716;1088;114037;-76
2021/06/19 10:00:54;;;;;;;9.70;3.23;;;;;;;34.68;27.10;100293.83;126647;1090;103221;-76
2021/06/19 10:03:58;;;;;;;5.80;2.70;;;;;;;34.49;28.22;100300.03;126684;1090;114359;-76
2021/06/19 10:06:46;;;;;;;3.70;2.73;;;;;;;34.36;27.78;100310.81;126749;1089;102956;-77
2021/06/19 10:09:35;;;;;;;7.17;3.03;;;;;;;34.30;28.40;100306.18;126615;1088;114147;-77
2021/06/19 10:12:27;;;;;;;6.60;2.60;;;;;;;34.37;28.32;100304.35;126798;1088;102879;-77
2021/06/19 10:15:16;;;;;;;3.93;2.60;;;;;;;34.42;28.10;100291.86;126588;1088;114475;-76
2021/06/19 10:18:04;;;;;;;7.17;2.80;;;;;;;34.47;27.76;100296.66;126700;1090;102647;-77
2021/06/19 10:20:53;;;;;;;4.40;2.30;;;;;;;34.31;27.73;100286.19;126607;1089;114179;-76
2021/06/19 10:23:41;;;;;;;5.57;2.57;;;;;;;34.54;27.82;100302.95;126724;1088;102846;-77
2021/06/19 10:26:29;;;;;;;4.97;2.03;;;;;;;34.33;26.82;100294.94;126671;1089;114468;-78
2021/06/19 10:29:23;;;;;;;5.70;2.50;;;;;;;34.04;27.12;100277.94;126751;1088;102724;-76
2021/06/19 10:32:11;;;;;;;4.60;2.50;;;;;;;33.94;27.14;100281.03;126585;1090;114207;-76
2021/06/19 10:35:00;;;;;;;5.40;2.80;;;;;;;33.90;27.60;100295.14;126805;1090;102876;-76
2021/06/19 10:37:51;;;;;;;3.47;2.50;;;;;;;33.66;27.52;100272.09;126704;1088;101081;-76
2021/06/19 10:40:51;;;;;;;7.73;2.97;;;;;;;33.73;28.23;100272.12;126605;1090;114104;-77
2021/06/19 10:43:47;;;;;;;4.57;2.67;;;;;;;33.94;28.15;100266.67;126673;1090;102692;-76
2021/06/19 10:46:37;;;;;;;6.83;2.77;;;;;;;33.83;28.19;100273.44;126623;1090;114158;-76
2021/06/19 10:49:37;;;;;;;4.90;2.90;;;;;;;33.54;27.96;100252.86;126825;1088;102950;-77
2021/06/19 10:52:38;;;;;;;5.57;3.17;;;;;;;33.41;28.46;100260.91;126705;1089;114270;-80
2021/06/19 10:55:26;;;;;;;4.27;2.63;;;;;;;33.42;28.52;100262.58;126674;1090;102897;-79
2021/06/19 10:58:20;;;;;;;7.13;3.17;;;;;;;33.33;28.50;100277.27;126658;1090;114320;-79
2021/06/19 11:01:07;;;;;;;12.03;3.63;;;;;;;33.14;28.84;100257.13;126680;1088;102938;-80
2021/06/19 11:03:58;;;;;;;4.90;2.80;;;;;;;33.15;29.10;100241.74;126638;1090;114287;-79
2021/06/19 11:06:46;;;;;;;8.07;2.90;;;;;;;32.87;29.04;100247.13;126732;1088;102863;-79
2021/06/19 11:09:42;;;;;;;6.80;2.90;;;;;;;32.49;29.32;100247.33;126711;1088;114039;-79
2021/06/19 11:12:34;;;;;;;8.75;3.85;;;;;;;32.28;29.72;100245.44;126672;1090;102898;-79
2021/06/19 11:15:34;;;;;;;9.25;3.70;;;;;;;32.01;30.44;100259.61;126768;1089;114206;-80
2021/06/19 11:18:50;;;;;;;5.60;3.70;;;;;;;31.88;31.45;100259.43;126814;1089;102881;-79
2021/06/19 11:21:39;;;;;;;7.93;4.67;;;;;;;31.95;30.99;100233.38;126649;1089;114073;-81
2021/06/19 11:24:27;;;;;;;6.43;3.97;;;;;;;31.90;32.02;100238.50;126820;1088;102948;-78
2021/06/19 11:27:15;;;;;;;15.30;7.73;;;;;;;31.85;31.91;100231.81;126589;1089;114224;-82
2021/06/19 11:30:03;;;;;;;7.30;3.70;;;;;;;31.62;31.74;100227.53;126788;1089;102977;-79
2021/06/19 11:32:51;;;;;;;7.37;3.67;;;;;;;31.38;32.24;100225.91;126643;1090;114299;-79
2021/06/19 11:35:39;;;;;;;5.27;3.20;;;;;;;31.41;32.73;100231.77;126742;1088;101227;-79
2021/06/19 11:38:56;;;;;;;6.57;3.90;;;;;;;31.42;32.75;100232.60;126627;1088;114475;-79
2021/06/19 11:41:46;;;;;;;4.80;3.83;;;;;;;31.67;32.56;100220.55;126680;1088;102931;-79
2021/06/19 11:44:40;;;;;;;7.63;3.20;;;;;;;31.93;32.12;100224.63;126654;1090;113649;-79
2021/06/19 11:47:28;;;;;;;5.97;3.30;;;;;;;32.03;31.65;100226.02;126701;1089;102962;-79
2021/06/19 11:50:16;;;;;;;6.93;3.67;;;;;;;31.96;31.96;100225.12;126746;1090;103431;-79
2021/06/19 11:53:28;;;;;;;5.73;3.67;;;;;;;31.69;32.10;100245.45;126730;1090;103433;-78
2021/06/19 11:56:28;;;;;;;3.70;3.33;;;;;;;31.52;32.17;100233.18;126591;1090;102699;-78
2021/06/19 11:59:15;;;;;;;4.83;3.50;;;;;;;31.67;32.68;100209.76;126823;1090;114834;-78
2021/06/19 12:02:12;;;;;;;7.00;3.37;;;;;;;31.98;31.95;100222.23;126861;1090;102871;-78
2021/06/19 12:05:13;;;;;;;8.67;3.47;;;;;;;32.17;32.23;100218.94;126654;1089;113761;-77
2021/06/19 12:08:01;;;;;;;5.47;4.00;;;;;;;32.14;32.18;100228.25;126700;1089;102885;-78
2021/06/19 12:10:50;;;;;;;9.75;3.45;;;;;;;32.07;32.04;100216.52;126619;1090;114148;-78
2021/06/19 12:13:40;;;;;;;5.20;3.40;;;;;;;32.03;31.93;100235.98;126770;1089;102959;-79
2021/06/19 12:16:30;;;;;;;6.75;3.20;;;;;;;32.03;32.12;100214.40;126674;1090;114134;-79
2021/06/19 12:19:21;;;;;;;5.43;2.97;;;;;;;31.98;31.62;100220.37;126730;1090;103033;-79
2021/06/19 12:22:15;;;;;;;3.60;3.00;;;;;;;31.80;31.91;100203.75;126621;1090;114160;-79
2021/06/19 12:25:03;;;;;;;8.43;3.27;;;;;;;31.65;31.79;100198.33;126724;1089;103013;-78
2021/06/19 12:27:50;;;;;;;8.57;3.27;;;;;;;31.48;31.95;100208.46;126618;1090;114231;-79
2021/06/19 12:30:38;;;;;;;5.13;2.83;;;;;;;31.41;32.19;100196.73;126818;1090;103041;-78
2021/06/19 12:33:29;;;;;;;3.67;2.90;;;;;;;31.48;32.46;100194.98;126679;1090;113477;-79
2021/06/19 12:36:23;;;;;;;4.13;3.30;;;;;;;31.62;32.28;100174.44;126829;1089;101714;-79
2021/06/19 12:39:11;;;;;;;8.17;3.20;;;;;;;31.67;32.21;100176.57;126651;1090;114305;-79
2021/06/19 12:42:01;;;;;;;5.43;3.20;;;;;;;31.72;32.07;100171.44;126906;1089;102865;-79
2021/06/19 12:45:05;;;;;;;6.73;3.30;;;;;;;31.81;32.32;100184.67;126680;1090;102930;-79
2021/06/19 12:47:53;;;;;;;6.73;3.10;;;;;;;31.72;32.23;100193.88;126688;1089;102955;-79